Hauptseite
METAR-TAF:

METAR-TAF

Flughäfen :

Flughafen Epinal-Mirecourt

Épinal, Frankreich

Breite: 48-19-31N, Länge: 6-04-00E, Höhe: 330 m

Beobachtung

Neuester Wetterbericht von vor 23 Minuten, um 06:30 UTC
Wind 9 kt aus Nordost
Temperatur 1°C
Luftfeuchtigkeit 86%
Luftdruck 1043 hPa
Sichtweite 10 km oder mehr
Leicht bewölkt in der Höhe von 1300 ft
Aufgelockert bewölkt in der Höhe von 4900 ft

METAR: LFSG 200630Z AUTO 04009KT 9999 FEW013 SCT049 01/M01 Q1043

Zeit: 07:53 (06:53 UTC)


TAF: fehlend

Wetterbeobachtungen und Prognosen von mehr als 4000 Flughäfen (METAR und TAF Bericht).

Die verfügbaren Stationen werden durch gelbe und rote Markierungen auf der Karte dargestellt.

Führen Sie die Maus auf sie, um den Namen der Station zu sehen.

Darauf klicken, um die Beobachtung von Wetterbeobachtungen und Prognosen zu sehen.

Um die Karte zu ändern : klicken Sie auf den grünen Tasten mit einem schwarzen Kreuz Zum Vergrößern, auf den grünen Button mit einem Gedankenstrich zu verkleinern, oder auf die grünen Pfeile für benachbarte Karten.


METAR-TAF: